createdAt,value
2018-09-18T00:03:54.425Z,17.90
2018-09-18T00:08:57.444Z,17.89
2018-09-18T00:14:00.466Z,17.87
2018-09-18T00:19:03.695Z,17.87
2018-09-18T00:24:07.852Z,17.86
2018-09-18T00:29:13.771Z,17.87
2018-09-18T00:34:17.587Z,17.91
2018-09-18T00:39:21.346Z,17.99
2018-09-18T00:44:24.436Z,18.03
2018-09-18T00:49:27.487Z,18.02
2018-09-18T00:54:30.523Z,17.98
2018-09-18T00:59:34.303Z,17.92
2018-09-18T01:04:38.296Z,17.83
2018-09-18T01:09:43.068Z,17.75
2018-09-18T01:14:47.077Z,17.65
2018-09-18T01:19:50.951Z,17.56
2018-09-18T01:24:53.994Z,17.48
2018-09-18T01:29:56.999Z,17.41
2018-09-18T01:34:59.991Z,17.35
2018-09-18T01:40:03.275Z,17.34
2018-09-18T01:45:06.892Z,17.33
2018-09-18T01:50:11.035Z,17.33
2018-09-18T01:55:14.991Z,17.30
2018-09-18T02:00:18.837Z,17.29
2018-09-18T02:05:22.223Z,17.27
2018-09-18T02:10:25.387Z,17.27
2018-09-18T02:15:28.458Z,17.26
2018-09-18T02:20:31.559Z,17.25
2018-09-18T02:25:34.998Z,17.28
2018-09-18T02:30:39.824Z,17.29
2018-09-18T02:35:43.584Z,17.34
2018-09-18T02:40:47.410Z,17.43
2018-09-18T02:45:50.921Z,17.40
2018-09-18T02:50:54.090Z,17.39
2018-09-18T02:55:57.135Z,17.35
2018-09-18T03:01:00.177Z,17.33
2018-09-18T03:06:03.459Z,17.35
2018-09-18T03:11:07.178Z,17.30
2018-09-18T03:16:15.270Z,17.22
2018-09-18T03:21:19.142Z,17.17
2018-09-18T03:26:23.922Z,17.17
2018-09-18T03:31:26.942Z,17.19
2018-09-18T03:36:32.658Z,17.19
2018-09-18T03:41:35.794Z,17.17
2018-09-18T03:46:39.759Z,17.17
2018-09-18T03:51:44.391Z,17.15
2018-09-18T03:56:48.323Z,17.12
2018-09-18T04:01:51.770Z,17.14
2018-09-18T04:06:54.794Z,17.14
2018-09-18T04:11:57.794Z,17.07
2018-09-18T04:17:00.807Z,16.95
2018-09-18T04:22:03.893Z,16.82
2018-09-18T04:27:06.919Z,16.78
2018-09-18T04:32:11.752Z,16.72
2018-09-18T04:37:15.560Z,16.68
2018-09-18T04:42:19.504Z,16.67
2018-09-18T04:47:22.545Z,16.64
2018-09-18T04:52:25.665Z,16.58
2018-09-18T04:57:28.972Z,16.55
2018-09-18T05:02:32.048Z,16.55
2018-09-18T05:07:35.077Z,16.61
2018-09-18T05:12:38.699Z,16.67
2018-09-18T05:17:44.208Z,16.72
2018-09-18T05:22:48.282Z,16.80
2018-09-18T05:27:52.100Z,16.90
2018-09-18T05:32:55.184Z,16.98
2018-09-18T05:37:58.226Z,17.04
2018-09-18T05:43:01.222Z,17.04
2018-09-18T05:48:05.369Z,17.07
2018-09-18T05:53:11.113Z,17.21
2018-09-18T05:58:15.299Z,17.37
2018-09-18T06:03:19.319Z,17.57
2018-09-18T06:08:22.568Z,17.75
2018-09-18T06:13:25.594Z,17.94
2018-09-18T06:18:28.605Z,18.20
2018-09-18T06:23:31.616Z,18.44
2018-09-18T06:28:35.077Z,18.74
2018-09-18T06:33:38.756Z,19.10
2018-09-18T06:38:43.435Z,19.43
2018-09-18T06:43:47.647Z,19.73
2018-09-18T06:48:50.674Z,19.97
2018-09-18T06:53:53.680Z,20.21
2018-09-18T06:58:56.690Z,20.49
2018-09-18T07:03:59.698Z,20.82
2018-09-18T07:09:03.344Z,21.22
2018-09-18T07:14:06.406Z,21.65
2018-09-18T07:19:12.015Z,22.03
2018-09-18T07:24:16.077Z,22.40
2018-09-18T07:29:19.937Z,22.71
2018-09-18T07:34:23.018Z,23.00
2018-09-18T07:39:26.094Z,23.32
2018-09-18T07:44:29.162Z,23.57
2018-09-18T07:49:32.179Z,23.87
2018-09-18T07:54:35.201Z,24.17
2018-09-18T07:59:38.708Z,24.42
2018-09-18T08:04:43.288Z,24.70
2018-09-18T08:09:47.175Z,25.01
2018-09-18T08:14:50.696Z,25.23
2018-09-18T08:19:53.801Z,25.47
2018-09-18T08:24:56.806Z,25.57
2018-09-18T08:29:59.826Z,25.80
2018-09-18T08:35:02.895Z,26.05
2018-09-18T08:40:06.232Z,26.30
2018-09-18T08:45:09.977Z,26.58
2018-09-18T08:50:14.218Z,26.72
2018-09-18T08:55:17.918Z,26.94
2018-09-18T09:00:21.402Z,27.18
2018-09-18T09:05:24.501Z,27.43
2018-09-18T09:10:27.531Z,27.62
2018-09-18T09:15:30.701Z,27.87
2018-09-18T09:20:33.656Z,28.08
2018-09-18T09:25:36.662Z,28.18
2018-09-18T09:30:44.823Z,28.34
2018-09-18T09:35:48.678Z,28.56
2018-09-18T09:40:52.302Z,28.73
2018-09-18T09:45:55.321Z,28.87
2018-09-18T09:50:58.321Z,28.91
2018-09-18T09:56:01.346Z,28.99
2018-09-18T10:01:10.461Z,29.08
2018-09-18T10:06:14.451Z,29.32
2018-09-18T10:11:18.164Z,29.58
2018-09-18T10:16:21.563Z,29.77
2018-09-18T10:21:24.578Z,29.89
2018-09-18T10:26:27.776Z,30.09
2018-09-18T10:31:31.336Z,30.21
2018-09-18T10:36:34.409Z,30.32
2018-09-18T10:41:37.925Z,30.50
2018-09-18T10:46:42.469Z,30.69
2018-09-18T10:51:46.208Z,30.83
2018-09-18T10:56:50.247Z,31.02
2018-09-18T11:01:53.546Z,31.25
2018-09-18T11:06:56.649Z,31.54
2018-09-18T11:12:00.103Z,31.75
2018-09-18T11:17:03.319Z,31.89
2018-09-18T11:22:06.948Z,32.10
2018-09-18T11:27:11.663Z,32.16
2018-09-18T11:32:15.685Z,32.21
2018-09-18T11:37:19.167Z,32.38
2018-09-18T11:42:22.240Z,32.40
2018-09-18T11:47:26.675Z,32.61
2018-09-18T11:52:29.778Z,32.75
2018-09-18T11:57:33.124Z,32.81
2018-09-18T12:02:36.974Z,32.92
2018-09-18T12:07:44.979Z,33.00
2018-09-18T12:12:49.230Z,33.13
2018-09-18T12:17:52.539Z,33.27
2018-09-18T12:22:55.568Z,33.42
2018-09-18T12:27:58.660Z,33.47
2018-09-18T12:33:01.680Z,33.47
2018-09-18T12:38:05.584Z,33.54
2018-09-18T12:43:09.191Z,33.61
2018-09-18T12:48:13.427Z,33.75
2018-09-18T12:53:17.898Z,33.73
2018-09-18T12:58:23.236Z,33.77
2018-09-18T13:03:27.880Z,33.78
2018-09-18T13:08:31.786Z,33.70
2018-09-18T13:13:36.365Z,33.79
2018-09-18T13:18:39.457Z,33.97
2018-09-18T13:23:43.084Z,34.04
2018-09-18T13:28:47.301Z,34.12
2018-09-18T13:33:52.001Z,34.24
2018-09-18T13:38:55.450Z,34.30
2018-09-18T13:43:59.122Z,34.28
2018-09-18T13:49:02.570Z,34.08
2018-09-18T13:54:05.610Z,34.05
2018-09-18T13:59:08.637Z,34.10
2018-09-18T14:04:11.915Z,34.13
2018-09-18T14:09:15.537Z,34.20
2018-09-18T14:14:20.297Z,34.13
2018-09-18T14:19:24.838Z,34.15
2018-09-18T14:24:28.832Z,34.29
2018-09-18T14:29:32.183Z,34.23
2018-09-18T14:34:35.190Z,34.16
2018-09-18T14:39:38.240Z,34.37
2018-09-18T14:44:41.258Z,34.47
2018-09-18T14:49:44.351Z,34.35
2018-09-18T14:54:47.387Z,34.28
2018-09-18T14:59:52.369Z,34.39
2018-09-18T15:04:56.721Z,34.41
2018-09-18T15:10:00.653Z,34.42
2018-09-18T15:15:03.857Z,34.41
2018-09-18T15:20:07.095Z,34.50
2018-09-18T15:25:11.331Z,34.43
2018-09-18T15:30:16.440Z,34.42
2018-09-18T15:35:20.566Z,34.32
2018-09-18T15:40:25.926Z,34.23
2018-09-18T15:45:29.455Z,34.16
2018-09-18T15:50:32.896Z,34.02
2018-09-18T15:55:36.001Z,33.90
2018-09-18T16:00:39.042Z,33.92
2018-09-18T16:05:42.075Z,33.94
2018-09-18T16:10:45.217Z,33.86
2018-09-18T16:15:49.139Z,33.81
2018-09-18T16:20:56.042Z,33.68
2018-09-18T16:26:00.163Z,33.41
2018-09-18T16:31:03.695Z,33.28
2018-09-18T16:36:07.341Z,33.17
2018-09-18T16:41:10.420Z,33.00
2018-09-18T16:46:13.423Z,32.76
2018-09-18T16:51:16.437Z,32.50
2018-09-18T16:56:19.454Z,32.29
2018-09-18T17:01:22.851Z,32.07
2018-09-18T17:06:27.564Z,31.86
2018-09-18T17:11:31.908Z,31.56
2018-09-18T17:16:36.243Z,31.40
2018-09-18T17:21:39.319Z,31.25
2018-09-18T17:26:44.335Z,31.14
2018-09-18T17:31:51.153Z,30.96
2018-09-18T17:36:55.086Z,30.73
2018-09-18T17:41:58.428Z,30.53
2018-09-18T17:47:01.808Z,30.37
2018-09-18T17:52:05.462Z,30.21
2018-09-18T17:57:08.624Z,30.07
2018-09-18T18:02:12.013Z,29.90
2018-09-18T18:07:15.133Z,29.74
2018-09-18T18:12:18.156Z,29.55
2018-09-18T18:17:21.171Z,29.33
2018-09-18T18:22:25.840Z,29.10
2018-09-18T18:27:29.577Z,28.91
2018-09-18T18:32:32.875Z,28.80
2018-09-18T18:37:36.151Z,28.61
2018-09-18T18:42:39.226Z,28.50
2018-09-18T18:47:44.694Z,28.40
2018-09-18T18:52:47.927Z,28.32
2018-09-18T18:57:51.709Z,28.26
2018-09-18T19:02:56.829Z,28.22
2018-09-18T19:08:00.634Z,28.18
2018-09-18T19:13:04.002Z,28.10
2018-09-18T19:18:07.102Z,28.04
2018-09-18T19:23:10.182Z,27.94
2018-09-18T19:28:13.321Z,27.89
2018-09-18T19:33:16.393Z,27.88
2018-09-18T19:38:19.571Z,27.87
2018-09-18T19:43:23.580Z,27.84
2018-09-18T19:48:28.884Z,27.73
2018-09-18T19:53:32.263Z,27.65
2018-09-18T19:58:35.325Z,27.47
2018-09-18T20:03:38.433Z,27.36
2018-09-18T20:08:41.478Z,27.24
2018-09-18T20:13:44.515Z,27.16
2018-09-18T20:18:48.190Z,27.01
2018-09-18T20:23:51.656Z,26.88
2018-09-18T20:28:56.891Z,26.84
2018-09-18T20:34:01.080Z,26.77
2018-09-18T20:39:06.886Z,26.65
2018-09-18T20:44:09.935Z,26.55
2018-09-18T20:49:12.956Z,26.48
2018-09-18T20:54:15.962Z,26.37
2018-09-18T20:59:19.010Z,26.24
2018-09-18T21:04:22.905Z,26.15
2018-09-18T21:09:26.633Z,26.03
2018-09-18T21:14:30.592Z,25.94
2018-09-18T21:19:39.719Z,25.85
2018-09-18T21:24:42.709Z,25.72
2018-09-18T21:29:45.989Z,25.61
2018-09-18T21:34:49.743Z,25.48
2018-09-18T21:39:54.850Z,25.36
2018-09-18T21:44:58.625Z,25.23
2018-09-18T21:50:02.701Z,25.13
2018-09-18T21:55:06.027Z,25.04
2018-09-18T22:00:09.246Z,24.97
2018-09-18T22:05:12.263Z,24.89
2018-09-18T22:10:15.355Z,24.81
2018-09-18T22:15:18.417Z,24.69
2018-09-18T22:20:21.439Z,24.61
2018-09-18T22:25:26.482Z,24.47
2018-09-18T22:30:30.303Z,24.22
2018-09-18T22:35:34.274Z,24.00
2018-09-18T22:40:37.303Z,23.82
2018-09-18T22:45:40.389Z,23.64
2018-09-18T22:50:43.409Z,23.52
2018-09-18T22:55:46.414Z,23.43
2018-09-18T23:00:49.608Z,23.35
2018-09-18T23:05:52.898Z,23.32
2018-09-18T23:10:56.998Z,23.24
2018-09-18T23:16:00.860Z,22.93
2018-09-18T23:21:04.015Z,23.15
2018-09-18T23:26:08.696Z,23.09
2018-09-18T23:31:11.757Z,23.01
2018-09-18T23:36:14.754Z,22.97
2018-09-18T23:41:17.811Z,22.89
2018-09-18T23:46:20.821Z,22.77
2018-09-18T23:51:24.740Z,22.71
2018-09-18T23:56:28.615Z,22.69
